Time;durP1;ratioP1;P1;durP2;ratioP2;P2;SDS_P1;SDS_P2;PMS_P1;PMS_P2;Temp;Humidity;BMP_temperature;BMP_pressure;BME280_temperature;BME280_humidity;BME280_pressure;Samples;Min_cycle;Max_cycle;Signal;HPM_P1;HPM_P2
2022/01/16 00:04:48;;;;;;;11.87;5.70;;;;;;;-143.84;57.06;45237.59;5114675;27;20972;-69
2022/01/16 00:07:15;;;;;;;14.40;6.07;;;;;;;-143.84;56.82;45249.00;5113531;28;20516;-70
2022/01/16 00:09:43;;;;;;;9.50;5.17;;;;;;;-143.84;56.88;45228.06;5113623;28;20492;-70
2022/01/16 00:12:11;;;;;;;11.80;5.60;;;;;;;-143.84;57.10;45258.53;5113680;28;21013;-69
2022/01/16 00:14:38;;;;;;;8.03;4.73;;;;;;;-143.84;57.18;45241.41;5093760;28;20475;-69
2022/01/16 00:17:07;;;;;;;12.87;5.27;;;;;;;-143.84;57.50;45241.41;5113177;28;20757;-69
2022/01/16 00:19:34;;;;;;;7.00;4.90;;;;;;;-143.84;57.50;45231.88;5113647;28;20431;-70
2022/01/16 00:22:05;;;;;;;18.83;6.50;;;;;;;-143.84;57.48;45254.72;5113561;28;20949;-69
2022/01/16 00:24:34;;;;;;;8.30;5.00;;;;;;;-143.84;57.94;45241.41;5113310;28;20490;-69
2022/01/16 00:27:01;;;;;;;10.23;5.63;;;;;;;-143.84;58.22;45250.91;5113740;28;20450;-69
2022/01/16 00:29:31;;;;;;;9.60;5.50;;;;;;;-143.84;58.04;45233.78;5112820;28;20924;-69
2022/01/16 00:31:58;;;;;;;7.10;5.67;;;;;;;-143.84;58.27;45249.00;5113560;28;20438;-69
2022/01/16 00:34:27;;;;;;;9.43;5.10;;;;;;;-143.84;58.13;45258.53;5113100;28;20447;-69
2022/01/16 00:36:54;;;;;;;6.50;4.90;;;;;;;-143.84;57.82;45254.72;5112939;28;20564;-69
2022/01/16 00:39:21;;;;;;;7.90;5.10;;;;;;;-143.84;57.41;45247.09;5113081;28;20446;-69
2022/01/16 00:41:48;;;;;;;10.33;6.73;;;;;;;-143.84;57.58;45235.69;5113281;28;20504;-69
2022/01/16 00:44:15;;;;;;;13.90;5.90;;;;;;;-143.84;57.42;45252.81;5113129;28;20490;-69
2022/01/16 00:46:43;;;;;;;12.80;6.13;;;;;;;-143.84;57.36;45222.34;5113154;28;20436;-69
2022/01/16 00:49:10;;;;;;;10.23;5.40;;;;;;;-143.84;57.57;45277.56;5113404;28;20516;-69
2022/01/16 00:51:39;;;;;;;6.57;4.63;;;;;;;-143.84;57.65;45235.69;5113012;28;20427;-69
2022/01/16 00:54:06;;;;;;;10.93;6.63;;;;;;;-143.84;57.30;45247.09;5112748;28;20455;-69
2022/01/16 00:56:33;;;;;;;9.27;5.07;;;;;;;-143.84;57.33;45229.97;5112934;28;20475;-69
2022/01/16 00:59:00;;;;;;;9.17;4.30;;;;;;;-143.84;57.27;45231.88;5112739;28;20925;-69
2022/01/16 01:01:27;;;;;;;9.80;5.30;;;;;;;-143.84;57.48;45226.16;5110284;28;20500;-69
2022/01/16 01:03:57;;;;;;;20.83;5.70;;;;;;;-143.84;57.49;45258.53;5110357;28;20515;-69
2022/01/16 01:06:25;;;;;;;16.47;6.30;;;;;;;-143.84;57.68;45239.50;5111788;28;20450;-69
2022/01/16 01:08:53;;;;;;;10.17;5.80;;;;;;;-143.84;58.23;45254.72;5112005;28;20442;-69
2022/01/16 01:11:26;;;;;;;13.90;5.73;;;;;;;-143.84;58.46;45231.88;5111402;28;20451;-70
2022/01/16 01:14:15;;;;;;;7.87;5.20;;;;;;;-143.84;58.70;45249.00;5112283;28;20435;-69
2022/01/16 01:16:52;;;;;;;13.57;4.73;;;;;;;-143.84;58.38;45235.69;5111882;28;20493;-69
2022/01/16 01:19:21;;;;;;;8.60;4.90;;;;;;;-143.84;58.16;45256.63;5112366;28;20438;-69
2022/01/16 01:21:49;;;;;;;5.77;4.80;;;;;;;-143.84;58.49;45269.97;5112340;28;20438;-69
2022/01/16 01:24:18;;;;;;;9.43;5.10;;;;;;;-143.84;58.36;45231.88;5112293;28;20435;-69
2022/01/16 01:26:53;;;;;;;8.73;5.20;;;;;;;-143.84;58.85;45224.25;5112374;28;20435;-69
2022/01/16 01:29:21;;;;;;;10.30;4.93;;;;;;;-143.84;58.53;45237.59;5110693;28;20518;-69
2022/01/16 01:31:51;;;;;;;9.23;5.00;;;;;;;-143.84;58.86;45239.50;5111624;28;20442;-69
2022/01/16 01:34:19;;;;;;;7.17;4.90;;;;;;;-143.84;59.09;45247.09;5112207;28;20431;-69
2022/01/16 01:36:48;;;;;;;11.37;5.13;;;;;;;-143.84;59.51;45250.91;5112171;28;20918;-70
2022/01/16 01:39:18;;;;;;;9.33;4.63;;;;;;;-143.84;59.12;45262.34;5112022;28;20439;-69
2022/01/16 01:41:46;;;;;;;7.90;4.60;;;;;;;-143.84;59.35;45222.34;5111257;28;20443;-69
2022/01/16 01:52:27;;;;;;;9.20;5.23;;;;;;;-143.84;59.64;45256.63;5112423;28;20465;-69
2022/01/16 01:54:56;;;;;;;30.37;6.30;;;;;;;-143.84;59.28;45258.53;5112692;28;20427;-69
2022/01/16 01:57:23;;;;;;;8.70;5.20;;;;;;;-143.84;59.73;45241.41;5112076;28;21060;-69
2022/01/16 01:59:51;;;;;;;7.03;4.87;;;;;;;-143.84;59.54;45254.72;5112679;28;21005;-69
2022/01/16 02:02:18;;;;;;;11.53;6.00;;;;;;;-143.84;59.51;45249.00;5112229;28;20450;-69
2022/01/16 02:04:45;;;;;;;10.03;4.97;;;;;;;-143.84;59.41;45271.88;5111643;28;20492;-69
2022/01/16 02:07:13;;;;;;;7.07;4.90;;;;;;;-143.84;59.60;45237.59;5111740;28;20460;-69
2022/01/16 02:09:40;;;;;;;12.60;5.10;;;;;;;-143.84;58.80;45233.78;5112072;28;20446;-69
2022/01/16 02:12:11;;;;;;;7.53;4.17;;;;;;;-143.84;58.90;45245.19;5111968;28;20428;-69
2022/01/16 02:14:53;;;;;;;11.27;4.83;;;;;;;-143.84;58.59;45256.63;5111844;28;20438;-69
2022/01/16 02:28:24;;;;;;;9.53;6.70;;;;;;;-143.84;58.18;45231.88;5111103;28;20870;-69
2022/01/16 02:31:14;;;;;;;12.43;4.60;;;;;;;-143.84;58.27;45235.69;5110824;28;20834;-69
2022/01/16 02:36:45;;;;;;;5.43;4.53;;;;;;;-143.84;58.33;45226.16;5090673;28;20637;-69
2022/01/16 02:39:15;;;;;;;7.23;4.40;;;;;;;-143.84;58.48;45218.53;5112019;28;20527;-69
2022/01/16 02:41:44;;;;;;;7.70;4.60;;;;;;;-143.84;58.59;45231.88;5111942;28;20961;-69
2022/01/16 02:44:19;;;;;;;10.50;4.60;;;;;;;-143.84;58.35;45254.72;5110262;28;21020;-69
2022/01/16 02:46:47;;;;;;;7.30;4.87;;;;;;;-143.84;57.97;45235.69;5111335;28;20450;-69
2022/01/16 02:49:20;;;;;;;6.97;4.40;;;;;;;-143.84;57.93;45250.91;5111650;28;20446;-69
2022/01/16 02:51:48;;;;;;;13.27;6.20;;;;;;;-143.84;57.68;45216.63;5112259;28;20442;-69
2022/01/16 02:54:16;;;;;;;13.00;5.50;;;;;;;-143.84;57.79;45239.50;5115409;28;20438;-69
2022/01/16 02:56:45;;;;;;;6.50;3.70;;;;;;;-143.84;57.62;45243.31;5115792;28;20472;-69
2022/01/16 02:59:12;;;;;;;8.83;5.00;;;;;;;-143.84;57.62;45235.69;5115677;28;20471;-69
2022/01/16 03:01:40;;;;;;;16.83;4.77;;;;;;;-143.84;57.40;45209.03;5115531;28;20947;-69
2022/01/16 03:04:09;;;;;;;8.30;3.97;;;;;;;-143.84;57.75;45260.44;5115478;28;20481;-69
2022/01/16 03:06:37;;;;;;;14.63;4.57;;;;;;;-143.84;57.17;45245.19;5115578;28;20586;-69
2022/01/16 03:09:07;;;;;;;6.27;4.10;;;;;;;-143.84;57.17;45252.81;5114628;28;20439;-69
2022/01/16 03:11:39;;;;;;;9.23;4.57;;;;;;;-143.84;57.59;45235.69;5114937;28;20439;-69
2022/01/16 03:14:10;;;;;;;11.80;4.70;;;;;;;-143.84;57.42;45220.44;5115053;28;20879;-69
2022/01/16 03:16:40;;;;;;;7.73;4.40;;;;;;;-143.84;57.07;45237.59;5115174;28;21071;-69
2022/01/16 03:21:55;;;;;;;8.23;4.23;;;;;;;-143.84;57.08;45218.53;5115455;28;20406;-69
2022/01/16 03:24:26;;;;;;;7.97;4.60;;;;;;;-143.84;57.15;45220.44;5115333;28;20466;-69
2022/01/16 03:26:56;;;;;;;12.63;5.27;;;;;;;-143.84;56.99;45269.97;5115192;28;20767;-69
2022/01/16 03:29:23;;;;;;;8.83;4.40;;;;;;;-143.84;57.21;45220.44;5115404;28;20493;-69
2022/01/16 03:31:50;;;;;;;7.83;4.60;;;;;;;-143.84;57.34;45269.97;5115501;28;20969;-69
2022/01/16 03:34:18;;;;;;;4.70;4.20;;;;;;;-143.84;57.08;45233.78;5115142;28;20435;-69
2022/01/16 03:36:45;;;;;;;8.83;4.47;;;;;;;-143.84;57.18;45264.25;5114907;28;20999;-69
2022/01/16 03:39:13;;;;;;;6.07;4.10;;;;;;;-143.84;57.11;45237.59;5115198;28;20446;-69
2022/01/16 03:41:40;;;;;;;6.23;3.93;;;;;;;-143.84;57.06;45218.53;5115340;28;20842;-69
2022/01/16 03:44:09;;;;;;;4.87;4.23;;;;;;;-143.84;57.08;45247.09;5114669;28;20490;-69
2022/01/16 03:46:38;;;;;;;9.03;4.83;;;;;;;-143.84;57.11;45233.78;5114656;28;20499;-69
2022/01/16 03:49:07;;;;;;;7.20;4.70;;;;;;;-143.84;57.19;45241.41;5115184;28;20431;-69
2022/01/16 03:51:35;;;;;;;6.20;4.40;;;;;;;-143.84;56.78;45231.88;5114784;28;20431;-69
2022/01/16 03:54:03;;;;;;;8.50;4.93;;;;;;;-143.84;56.90;45266.16;5114612;28;20435;-69
2022/01/16 03:56:31;;;;;;;7.07;5.13;;;;;;;-143.84;56.96;45226.16;5114746;28;20483;-69
2022/01/16 03:58:58;;;;;;;7.80;4.37;;;;;;;-143.84;56.92;45241.41;5112893;28;20488;-69
2022/01/16 04:01:27;;;;;;;10.17;4.67;;;;;;;-143.84;56.90;45262.34;5114497;28;20928;-69
2022/01/16 04:03:55;;;;;;;9.00;4.73;;;;;;;-143.84;56.80;45247.09;5114159;28;20447;-69
2022/01/16 04:06:23;;;;;;;7.83;4.87;;;;;;;-143.84;56.62;45231.88;5114438;28;20484;-69
2022/01/16 04:08:52;;;;;;;10.20;4.37;;;;;;;-143.84;56.64;45243.31;5114518;28;20435;-69
2022/01/16 04:11:20;;;;;;;5.67;3.93;;;;;;;-143.84;56.46;45247.09;5114501;28;20529;-69
2022/01/16 04:13:51;;;;;;;6.37;4.50;;;;;;;-143.84;56.49;45212.84;5114453;28;20450;-69
2022/01/16 04:16:19;;;;;;;6.30;5.10;;;;;;;-143.84;56.23;45241.41;5114115;28;20508;-69
2022/01/16 04:18:51;;;;;;;7.43;4.50;;;;;;;-143.84;55.95;45243.31;5114537;28;20423;-69
2022/01/16 04:21:19;;;;;;;8.20;4.20;;;;;;;-143.84;55.63;45264.25;5114196;28;20462;-69
2022/01/16 04:23:46;;;;;;;8.37;5.40;;;;;;;-143.84;55.83;45268.06;5114218;28;20929;-69
2022/01/16 04:26:13;;;;;;;8.53;4.23;;;;;;;-143.84;55.74;45247.09;5114567;28;20920;-69
2022/01/16 04:28:41;;;;;;;6.47;4.20;;;;;;;-143.84;55.80;45243.31;5114251;28;20492;-69
2022/01/16 04:31:08;;;;;;;7.87;4.53;;;;;;;-143.84;55.83;45233.78;5114092;28;20442;-69
2022/01/16 04:33:35;;;;;;;7.30;4.20;;;;;;;-143.84;56.00;45249.00;5114244;28;20423;-69
2022/01/16 04:36:04;;;;;;;5.60;4.20;;;;;;;-143.84;55.87;45247.09;5113486;28;20531;-69
2022/01/16 04:38:33;;;;;;;9.43;4.77;;;;;;;-143.84;56.03;45247.09;5113975;28;20469;-69
2022/01/16 04:43:50;;;;;;;6.63;4.73;;;;;;;-143.84;55.79;45245.19;5113680;28;20483;-70
2022/01/16 04:46:18;;;;;;;4.53;4.10;;;;;;;-143.84;56.05;45249.00;5113874;28;20435;-69
2022/01/16 04:48:45;;;;;;;11.27;4.77;;;;;;;-143.84;55.94;45233.78;5113642;28;20940;-69
2022/01/16 04:51:14;;;;;;;5.83;4.37;;;;;;;-143.84;55.95;45235.69;5113906;28;20439;-69
2022/01/16 04:53:41;;;;;;;8.70;4.70;;;;;;;-143.84;56.08;45268.06;5111380;28;20443;-72
2022/01/16 04:56:09;;;;;;;5.80;4.43;;;;;;;-143.84;55.86;45250.91;5110831;28;20471;-72
2022/01/16 04:58:37;;;;;;;9.10;4.90;;;;;;;-143.84;56.04;45220.44;5110840;28;20439;-72
2022/01/16 05:01:05;;;;;;;6.33;4.97;;;;;;;-143.84;56.39;45249.00;5111098;28;20443;-72
2022/01/16 05:03:34;;;;;;;8.37;4.70;;;;;;;-143.84;56.28;45260.44;5109919;28;20868;-72
2022/01/16 05:06:01;;;;;;;12.37;5.33;;;;;;;-143.84;56.11;45250.91;5110123;28;20438;-72
2022/01/16 05:08:30;;;;;;;6.97;4.80;;;;;;;-143.84;56.05;45222.34;5109645;28;20862;-72
2022/01/16 05:10:58;;;;;;;9.23;4.77;;;;;;;-143.84;56.08;45233.78;5109878;28;20913;-72
2022/01/16 05:16:34;;;;;;;6.07;5.03;;;;;;;-143.84;56.08;45250.91;5109280;28;20583;-72
2022/01/16 05:16:35;;;;;;;9.90;6.00;;;;;;;-143.84;55.93;45220.44;5109463;28;20482;-72
2022/01/16 05:19:03;;;;;;;7.17;4.77;;;;;;;-143.84;55.91;45231.88;5110197;28;20944;-72
2022/01/16 05:21:30;;;;;;;9.17;5.10;;;;;;;-143.84;55.84;45247.09;5110478;28;20845;-72
2022/01/16 05:23:59;;;;;;;5.20;4.70;;;;;;;-143.84;57.82;45226.16;5110531;28;20435;-73
2022/01/16 05:26:28;;;;;;;11.80;5.80;;;;;;;-143.84;56.00;45218.53;5110389;28;20930;-73
2022/01/16 05:28:56;;;;;;;9.77;5.00;;;;;;;-143.84;56.33;45220.44;5092341;28;20448;-76
2022/01/16 05:31:23;;;;;;;8.43;5.30;;;;;;;-143.84;56.25;45228.06;5097270;27;20548;-72
2022/01/16 05:33:50;;;;;;;9.43;4.20;;;;;;;-143.84;56.15;45226.16;5089778;28;21019;-71
2022/01/16 05:36:20;;;;;;;7.97;5.10;;;;;;;-143.84;55.51;45222.34;5089942;28;20481;-72
2022/01/16 05:38:47;;;;;;;6.47;5.00;;;;;;;-143.84;55.41;45262.34;5089736;28;20470;-72
2022/01/16 05:41:18;;;;;;;7.80;4.90;;;;;;;-143.84;55.32;45235.69;5089490;28;20445;-72
2022/01/16 05:43:45;;;;;;;14.77;5.20;;;;;;;-143.84;55.52;45243.31;5089787;28;20553;-72
2022/01/16 05:46:13;;;;;;;9.40;4.90;;;;;;;-143.84;55.22;45243.31;5089841;28;20436;-72
2022/01/16 05:48:40;;;;;;;7.60;5.10;;;;;;;-143.84;55.25;45243.31;5089765;28;20552;-72
2022/01/16 05:51:08;;;;;;;8.17;5.60;;;;;;;-143.84;55.01;45243.31;5089665;28;21331;-73
2022/01/16 05:53:35;;;;;;;6.40;5.00;;;;;;;-143.84;54.98;45241.41;5089423;28;20547;-72
2022/01/16 05:56:03;;;;;;;8.37;4.80;;;;;;;-143.84;55.17;45239.50;5088598;28;20805;-72
2022/01/16 05:58:31;;;;;;;9.83;4.40;;;;;;;-143.84;55.02;45254.72;5089531;28;20440;-72
2022/01/16 06:00:58;;;;;;;11.00;5.63;;;;;;;-143.84;54.66;45247.09;5089464;28;20502;-72
2022/01/16 06:03:25;;;;;;;9.13;5.90;;;;;;;-143.84;55.01;45222.34;5089431;28;20435;-72
2022/01/16 06:05:53;;;;;;;9.17;4.63;;;;;;;-143.84;54.72;45254.72;5089363;28;20436;-72
2022/01/16 06:08:20;;;;;;;5.23;4.20;;;;;;;-143.84;54.40;45237.59;5089247;28;20448;-72
2022/01/16 06:10:47;;;;;;;6.80;4.97;;;;;;;-143.84;54.69;45220.44;5088979;28;20501;-72
2022/01/16 06:13:16;;;;;;;9.60;5.80;;;;;;;-143.84;54.54;45243.31;5089277;28;20793;-72
2022/01/16 06:15:46;;;;;;;11.47;7.97;;;;;;;-143.84;54.54;45228.06;5089291;28;20956;-72
2022/01/16 06:18:14;;;;;;;15.03;7.67;;;;;;;-143.84;54.12;45228.06;5089536;28;20472;-72
2022/01/16 06:20:41;;;;;;;14.33;6.80;;;;;;;-143.84;53.78;45249.00;5088971;28;20525;-72
2022/01/16 06:23:09;;;;;;;11.23;6.60;;;;;;;-143.84;54.23;45209.03;5089455;28;20459;-72
2022/01/16 06:25:36;;;;;;;11.50;6.40;;;;;;;-143.84;54.30;45216.63;5088518;28;21041;-72
2022/01/16 06:28:04;;;;;;;10.23;6.87;;;;;;;-143.84;54.03;45224.25;5087754;28;20432;-73
2022/01/16 06:30:31;;;;;;;9.93;6.53;;;;;;;-143.84;53.77;45210.94;5088767;28;20485;-72
2022/01/16 06:33:00;;;;;;;14.70;7.60;;;;;;;-143.84;53.57;45226.16;5096202;28;20447;-76
2022/01/16 06:35:27;;;;;;;13.57;7.10;;;;;;;-143.84;53.58;45226.16;5105293;28;20446;-72
2022/01/16 06:37:55;;;;;;;10.00;5.70;;;;;;;-143.84;53.84;45258.53;5102607;28;21039;-73
2022/01/16 06:40:22;;;;;;;14.20;5.40;;;;;;;-143.84;53.78;45252.81;5099975;28;20447;-73
2022/01/16 06:42:49;;;;;;;12.97;6.47;;;;;;;-143.84;53.25;45226.16;5101824;28;20829;-73
2022/01/16 06:45:17;;;;;;;8.13;5.80;;;;;;;-143.84;53.32;45220.44;5098227;28;20458;-72
2022/01/16 06:47:44;;;;;;;6.70;5.03;;;;;;;-143.84;52.83;45231.88;5099212;28;20521;-72
2022/01/16 06:50:13;;;;;;;6.70;5.40;;;;;;;-143.84;52.22;45212.84;5098555;28;20452;-73
2022/01/16 06:52:41;;;;;;;13.13;5.93;;;;;;;-143.84;52.31;45237.59;5098637;28;20449;-73
2022/01/16 06:55:09;;;;;;;10.30;5.60;;;;;;;-143.84;51.01;45229.97;5106405;28;20443;-72
2022/01/16 06:57:36;;;;;;;12.10;6.40;;;;;;;-143.84;50.47;45220.44;5099749;28;20475;-73
2022/01/16 07:00:08;;;;;;;9.23;5.67;;;;;;;-143.84;50.51;45237.59;5096219;28;20454;-73
2022/01/16 07:02:35;;;;;;;10.47;5.73;;;;;;;-143.84;49.34;45226.16;5099588;28;20531;-73
2022/01/16 07:05:04;;;;;;;10.07;6.73;;;;;;;-143.84;48.32;45216.63;5097038;28;20861;-73
2022/01/16 07:07:33;;;;;;;10.80;6.10;;;;;;;-143.84;47.82;45212.84;5091418;28;20455;-73
2022/01/16 07:10:00;;;;;;;8.43;4.97;;;;;;;-143.84;47.20;45193.78;5095309;28;20458;-73
2022/01/16 07:12:28;;;;;;;10.90;5.10;;;;;;;-143.84;47.88;45199.50;5100511;28;20857;-70
2022/01/16 07:14:55;;;;;;;10.63;6.60;;;;;;;-143.84;47.70;45224.25;5087728;28;20450;-73
2022/01/16 07:17:22;;;;;;;9.70;6.17;;;;;;;-143.84;46.63;45199.50;5098373;28;21028;-71
2022/01/16 07:19:49;;;;;;;9.73;5.90;;;;;;;-143.84;46.09;45205.22;5098583;28;20937;-70
2022/01/16 07:22:18;;;;;;;11.70;6.20;;;;;;;-143.84;45.16;45199.50;5097453;28;20871;-71
2022/01/16 07:24:47;;;;;;;8.60;5.83;;;;;;;-143.84;45.35;45191.88;5098834;28;20531;-71
2022/01/16 07:27:15;;;;;;;20.63;7.00;;;;;;;-143.84;44.52;45201.41;5096964;28;21238;-71
2022/01/16 07:29:42;;;;;;;17.57;8.07;;;;;;;-143.84;44.51;45199.50;5104015;28;20451;-70
2022/01/16 07:32:09;;;;;;;23.77;8.10;;;;;;;-143.84;43.81;45197.59;5099497;28;21037;-71
2022/01/16 07:34:37;;;;;;;15.77;5.40;;;;;;;-143.84;43.34;45165.22;5096168;28;20442;-71
2022/01/16 07:37:04;;;;;;;10.37;5.90;;;;;;;-143.84;42.41;45205.22;5098742;28;20472;-73
2022/01/16 07:39:32;;;;;;;14.20;7.13;;;;;;;-143.84;42.30;45191.88;5102367;28;20808;-71
2022/01/16 07:42:00;;;;;;;6.70;4.60;;;;;;;-143.84;42.00;45184.25;5098989;28;20872;-71
2022/01/16 07:44:27;;;;;;;16.83;6.93;;;;;;;-143.84;41.38;45184.25;5106686;28;20490;-71
2022/01/16 07:46:55;;;;;;;22.23;7.93;;;;;;;-143.84;41.88;45195.69;5110526;28;20874;-72
2022/01/16 07:49:22;;;;;;;7.33;5.20;;;;;;;-143.84;40.62;45167.13;5110762;28;20537;-71
2022/01/16 07:51:49;;;;;;;7.30;5.57;;;;;;;-143.84;40.06;45212.84;5106319;28;20512;-71
2022/01/16 07:54:18;;;;;;;12.03;6.17;;;;;;;-143.84;39.85;45191.88;5109856;28;20952;-71
2022/01/16 07:56:46;;;;;;;9.87;6.40;;;;;;;-143.84;39.83;45159.50;5111130;28;21363;-71
2022/01/16 07:59:16;;;;;;;15.20;5.60;;;;;;;-143.84;39.16;45142.38;5111628;28;20443;-71
2022/01/16 08:01:43;;;;;;;8.33;5.00;;;;;;;-143.84;38.54;45174.75;5111042;28;20451;-72
2022/01/16 08:04:10;;;;;;;7.50;4.80;;;;;;;-143.84;38.46;45191.88;5110868;28;20501;-72
2022/01/16 08:06:38;;;;;;;8.40;5.20;;;;;;;-143.84;38.87;45189.97;5111126;28;20461;-70
2022/01/16 08:09:05;;;;;;;8.47;4.80;;;;;;;-143.84;38.24;45174.75;5110476;28;20439;-70
2022/01/16 08:11:32;;;;;;;8.37;5.00;;;;;;;-143.84;37.58;45174.75;5111426;28;21253;-71
2022/01/16 08:14:00;;;;;;;12.57;5.50;;;;;;;-143.84;37.79;45159.50;5111585;28;20451;-71
2022/01/16 08:16:29;;;;;;;7.47;4.90;;;;;;;-143.84;36.51;45132.84;5111768;28;20457;-71
2022/01/16 08:18:56;;;;;;;7.63;5.10;;;;;;;-143.84;36.65;45161.41;5111364;28;20541;-70
2022/01/16 08:21:23;;;;;;;12.87;5.30;;;;;;;-143.84;36.57;45148.09;5111218;28;20444;-71
2022/01/16 08:23:51;;;;;;;15.23;6.53;;;;;;;-143.84;36.33;45159.50;5110919;28;20451;-71
2022/01/16 08:26:18;;;;;;;10.80;4.83;;;;;;;-143.84;36.07;45150.00;5111825;28;20452;-71
2022/01/16 08:28:45;;;;;;;7.70;5.00;;;;;;;-143.84;35.85;45163.31;5111654;28;20456;-71
2022/01/16 08:31:12;;;;;;;7.50;4.90;;;;;;;-143.84;35.22;45146.19;5111948;28;20820;-71
2022/01/16 08:33:41;;;;;;;7.43;5.23;;;;;;;-143.84;34.98;45170.94;5112114;28;20518;-71
2022/01/16 08:36:08;;;;;;;6.07;4.63;;;;;;;-143.84;34.67;45150.00;5112537;27;20453;-71
2022/01/16 08:38:36;;;;;;;13.83;4.13;;;;;;;-143.84;34.64;45159.50;5110741;28;20822;-71
2022/01/16 08:41:03;;;;;;;15.50;5.47;;;;;;;-143.84;34.17;45144.28;5111344;28;20848;-71
2022/01/16 08:43:31;;;;;;;10.30;5.77;;;;;;;-143.84;34.00;45165.22;5111920;28;20876;-71
2022/01/16 08:45:58;;;;;;;7.27;5.33;;;;;;;-143.84;33.55;45134.75;5111500;28;20500;-71
2022/01/16 08:48:25;;;;;;;7.43;4.73;;;;;;;-143.84;33.71;45136.66;5112193;28;20456;-71
2022/01/16 08:50:53;;;;;;;8.17;5.40;;;;;;;-143.84;33.14;45144.28;5111228;28;20446;-71
2022/01/16 08:53:21;;;;;;;8.37;5.50;;;;;;;-143.84;33.13;45151.91;5112108;28;20454;-70
2022/01/16 08:55:48;;;;;;;6.93;5.20;;;;;;;-143.84;32.90;45138.56;5111747;28;20449;-71
2022/01/16 08:58:15;;;;;;;6.10;5.30;;;;;;;-143.84;33.16;45150.00;5111723;28;20492;-70
2022/01/16 09:00:45;;;;;;;11.47;6.10;;;;;;;-143.84;33.43;45146.19;5112066;28;20530;-70
2022/01/16 09:03:12;;;;;;;9.23;5.33;;;;;;;-143.84;32.94;45165.22;5111333;28;20443;-69
2022/01/16 09:05:39;;;;;;;6.90;5.43;;;;;;;-143.84;32.68;45138.56;5111516;28;20458;-70
2022/01/16 09:08:08;;;;;;;7.60;5.37;;;;;;;-143.84;33.23;45136.66;5112397;28;20509;-70
2022/01/16 09:10:37;;;;;;;11.77;6.40;;;;;;;-143.84;32.81;45144.28;5112453;28;20452;-70
2022/01/16 09:13:05;;;;;;;9.00;5.37;;;;;;;-143.84;31.86;45146.19;5111730;28;21068;-70
2022/01/16 09:15:32;;;;;;;11.80;6.47;;;;;;;-143.84;32.79;45096.66;5110936;28;20453;-71
2022/01/16 09:17:59;;;;;;;10.80;5.13;;;;;;;-143.84;32.57;45134.75;5110604;28;21020;-71
2022/01/16 09:20:27;;;;;;;6.73;5.27;;;;;;;-143.84;31.83;45140.47;5111272;28;20447;-72
2022/01/16 09:22:54;;;;;;;12.90;6.37;;;;;;;-143.84;32.15;45146.19;5111140;28;20454;-71
2022/01/16 09:25:23;;;;;;;7.90;5.00;;;;;;;-143.84;32.14;45121.44;5105934;28;20464;-71
2022/01/16 09:27:50;;;;;;;5.70;4.20;;;;;;;-143.84;31.23;45151.91;5110240;28;20463;-71
2022/01/16 09:30:18;;;;;;;12.40;5.23;;;;;;;-143.84;31.07;45115.72;5110861;28;20436;-72
2022/01/16 09:32:45;;;;;;;6.63;5.47;;;;;;;-143.84;31.70;45167.13;5110355;28;20512;-71
2022/01/16 09:35:13;;;;;;;12.67;6.00;;;;;;;-143.84;31.87;45146.19;5111044;28;21305;-71
2022/01/16 09:37:40;;;;;;;6.90;4.60;;;;;;;-143.84;31.92;45113.81;5109451;28;20552;-72
2022/01/16 09:40:10;;;;;;;6.03;4.23;;;;;;;-143.84;31.48;45127.13;5109963;28;20518;-73
2022/01/16 09:42:39;;;;;;;14.03;5.00;;;;;;;-143.84;31.38;45121.44;5110880;27;20513;-74
2022/01/16 09:45:10;;;;;;;6.87;5.10;;;;;;;-143.84;31.77;45161.41;5108876;28;20461;-73
2022/01/16 09:47:37;;;;;;;7.07;5.50;;;;;;;-143.84;31.67;45125.22;5109087;28;20785;-71
2022/01/16 09:50:06;;;;;;;8.27;5.43;;;;;;;-143.84;31.43;45127.13;5109025;28;20766;-72
2022/01/16 09:52:37;;;;;;;7.30;4.67;;;;;;;-143.84;32.16;45136.66;5108746;28;20447;-71
2022/01/16 09:55:05;;;;;;;8.33;5.50;;;;;;;-143.84;30.55;45130.94;5108645;28;20445;-72
2022/01/16 09:57:33;;;;;;;6.03;5.03;;;;;;;-143.84;31.15;45157.59;5108702;28;20532;-71
2022/01/16 10:00:04;;;;;;;6.73;4.40;;;;;;;-143.84;31.62;45129.03;5108998;28;20945;-71
2022/01/16 10:02:32;;;;;;;9.80;5.77;;;;;;;-143.84;31.72;45138.56;5108048;28;20439;-76
2022/01/16 10:04:59;;;;;;;6.83;5.23;;;;;;;-143.84;31.12;45127.13;5108994;28;20455;-71
2022/01/16 10:07:26;;;;;;;6.13;5.37;;;;;;;-143.84;30.70;45132.84;5108153;28;20458;-70
2022/01/16 10:10:09;;;;;;;20.73;5.40;;;;;;;-143.84;30.98;45129.03;5108976;28;20444;-71
2022/01/16 10:12:41;;;;;;;11.77;6.20;;;;;;;-143.84;30.52;45146.19;5109057;28;20526;-73
2022/01/16 10:15:21;;;;;;;15.00;7.73;;;;;;;-143.84;30.69;45144.28;5108675;28;21053;-74
2022/01/16 10:17:50;;;;;;;11.60;6.90;;;;;;;-143.84;31.52;45125.22;5109104;28;20466;-71
2022/01/16 10:20:18;;;;;;;13.10;5.73;;;;;;;-143.84;31.42;45125.22;5108751;28;20450;-70
2022/01/16 10:22:48;;;;;;;6.33;4.50;;;;;;;-143.84;31.98;45092.88;5107525;28;20500;-72
2022/01/16 10:25:17;;;;;;;7.03;5.20;;;;;;;-143.84;31.24;45098.56;5107539;28;20440;-72
2022/01/16 10:27:46;;;;;;;9.20;4.57;;;;;;;-143.84;30.61;45117.63;5106765;28;20443;-72
2022/01/16 10:30:18;;;;;;;9.53;4.90;;;;;;;-143.84;30.92;45108.09;5107091;28;20528;-71
2022/01/16 10:32:48;;;;;;;13.73;6.73;;;;;;;-143.84;31.18;45134.75;5106594;28;20453;-76
2022/01/16 10:35:20;;;;;;;10.00;6.03;;;;;;;-143.84;30.56;45111.91;5106675;28;20448;-74
2022/01/16 10:37:59;;;;;;;10.83;6.00;;;;;;;-143.84;30.84;45136.66;5107213;28;20857;-72
2022/01/16 10:40:33;;;;;;;9.60;6.20;;;;;;;-143.84;30.47;45119.53;5106138;28;20541;-72
2022/01/16 10:43:05;;;;;;;10.40;6.70;;;;;;;-143.84;31.55;45119.53;5105842;28;20535;-72
2022/01/16 10:45:34;;;;;;;11.10;6.07;;;;;;;-143.84;31.00;45130.94;5107224;28;20475;-72
2022/01/16 10:48:04;;;;;;;13.03;5.37;;;;;;;-143.84;30.61;45129.03;5106967;28;20452;-72
2022/01/16 10:50:34;;;;;;;7.23;5.53;;;;;;;-143.84;30.86;45117.63;5106027;28;20958;-71
2022/01/16 10:53:04;;;;;;;7.77;5.17;;;;;;;-143.84;31.75;45113.81;5105887;28;20455;-72
2022/01/16 10:55:38;;;;;;;7.70;5.57;;;;;;;-143.84;31.39;45144.28;5109006;28;20458;-74
2022/01/16 10:58:08;;;;;;;12.00;5.23;;;;;;;-143.84;31.68;45136.66;5109418;28;21814;-72
2022/01/16 11:00:36;;;;;;;9.37;5.40;;;;;;;-143.84;31.23;45129.03;5108300;28;20977;-74
2022/01/16 11:03:07;;;;;;;9.40;5.70;;;;;;;-143.84;31.46;45132.84;5108805;28;20448;-72
2022/01/16 11:05:36;;;;;;;5.70;5.10;;;;;;;-143.84;29.99;45085.25;5109029;28;20452;-72
2022/01/16 11:08:06;;;;;;;7.80;5.17;;;;;;;-143.84;29.91;45151.91;5109476;28;20519;-69
2022/01/16 11:10:35;;;;;;;11.07;5.80;;;;;;;-143.84;30.94;45098.56;5109091;28;20456;-69
2022/01/16 11:13:07;;;;;;;8.90;5.57;;;;;;;-143.84;31.16;45121.44;5109300;28;20449;-69
2022/01/16 11:15:35;;;;;;;9.50;5.23;;;;;;;-143.84;30.88;45094.78;5112832;28;20443;-68
2022/01/16 11:18:05;;;;;;;10.93;5.17;;;;;;;-143.84;30.87;45113.81;5111963;28;21383;-69
2022/01/16 11:20:36;;;;;;;9.50;7.00;;;;;;;-143.84;31.25;45172.84;5112917;28;20440;-70
2022/01/16 11:23:12;;;;;;;10.43;6.30;;;;;;;-143.84;30.95;45125.22;5112593;28;20513;-70
2022/01/16 11:25:40;;;;;;;8.80;6.23;;;;;;;-143.84;30.90;45121.44;5113516;28;20436;-70
2022/01/16 11:28:11;;;;;;;8.90;6.40;;;;;;;-143.84;31.20;45111.91;5113520;28;20442;-70
2022/01/16 11:30:42;;;;;;;7.90;6.00;;;;;;;-143.84;31.47;45102.38;5113989;28;21153;-71
2022/01/16 11:33:11;;;;;;;8.33;6.87;;;;;;;-143.84;31.46;45123.34;5113671;28;20440;-70
2022/01/16 11:35:45;;;;;;;16.17;8.50;;;;;;;-143.84;31.40;45117.63;5112681;28;20452;-71
2022/01/16 11:38:13;;;;;;;11.17;6.10;;;;;;;-143.84;31.37;45123.34;5113378;28;20479;-70
2022/01/16 11:40:48;;;;;;;7.10;6.10;;;;;;;-143.84;31.59;45117.63;5113381;28;20444;-74
2022/01/16 11:43:23;;;;;;;9.00;5.70;;;;;;;-143.84;31.05;45125.22;5108556;27;20460;-68
2022/01/16 11:45:53;;;;;;;20.53;9.73;;;;;;;-143.84;32.20;45115.72;5107056;28;20486;-69
2022/01/16 11:48:35;;;;;;;16.63;10.53;;;;;;;-143.84;32.29;45119.53;5096665;28;20450;-69
2022/01/16 11:51:03;;;;;;;23.00;8.93;;;;;;;-143.84;32.77;45121.44;5105127;28;20446;-70
2022/01/16 11:54:06;;;;;;;18.90;9.27;;;;;;;-143.84;33.14;45151.91;5101869;28;20472;-70